createdAt,value
2017-08-08T00:00:36.912Z,20.32
2017-08-08T00:01:36.909Z,20.31
2017-08-08T00:02:37.203Z,20.29
2017-08-08T00:03:36.888Z,20.35
2017-08-08T00:04:36.906Z,20.28
2017-08-08T00:05:36.895Z,20.29
2017-08-08T00:06:36.886Z,20.21
2017-08-08T00:07:36.875Z,20.38
2017-08-08T00:08:36.904Z,20.32
2017-08-08T00:09:36.855Z,20.29
2017-08-08T00:10:36.855Z,20.35
2017-08-08T00:11:36.844Z,20.21
2017-08-08T00:12:36.863Z,20.26
2017-08-08T00:13:36.828Z,20.26
2017-08-08T00:14:36.828Z,20.13
2017-08-08T00:15:36.825Z,20.23
2017-08-08T00:16:36.813Z,20.20
2017-08-08T00:17:37.179Z,20.23
2017-08-08T00:18:36.791Z,20.17
2017-08-08T00:19:36.793Z,20.20
2017-08-08T00:20:36.790Z,20.08
2017-08-08T00:21:36.773Z,20.13
2017-08-08T00:22:36.760Z,20.08
2017-08-08T00:23:36.818Z,20.16
2017-08-08T00:24:36.763Z,20.08
2017-08-08T00:25:36.743Z,20.14
2017-08-08T00:26:36.735Z,20.14
2017-08-08T00:27:36.728Z,20.10
2017-08-08T00:28:36.755Z,20.03
2017-08-08T00:29:36.725Z,20.14
2017-08-08T00:30:36.732Z,20.06
2017-08-08T00:31:36.702Z,20.10
2017-08-08T00:32:36.696Z,20.06
2017-08-08T00:33:37.148Z,20.02
2017-08-08T00:34:36.697Z,19.99
2017-08-08T00:35:36.686Z,20.01
2017-08-08T00:36:36.678Z,20.03
2017-08-08T00:37:36.678Z,19.98
2017-08-08T00:38:36.669Z,20.01
2017-08-08T00:39:36.960Z,20.02
2017-08-08T00:40:36.637Z,19.96
2017-08-08T00:41:36.653Z,19.94
2017-08-08T00:42:36.626Z,19.92
2017-08-08T00:43:36.628Z,20.06
2017-08-08T00:44:36.634Z,19.91
2017-08-08T00:45:36.636Z,19.98
2017-08-08T00:46:36.629Z,19.91
2017-08-08T00:47:36.587Z,19.94
2017-08-08T00:48:37.032Z,19.94
2017-08-08T00:49:36.589Z,19.98
2017-08-08T00:50:36.583Z,19.92
2017-08-08T00:51:36.565Z,19.99
2017-08-08T00:52:36.554Z,19.91
2017-08-08T00:53:36.555Z,19.95
2017-08-08T00:54:36.899Z,19.84
2017-08-08T00:55:36.534Z,19.84
2017-08-08T00:56:36.529Z,19.92
2017-08-08T00:57:36.521Z,19.94
2017-08-08T00:58:36.525Z,19.91
2017-08-08T00:59:36.507Z,19.91
2017-08-08T01:00:36.953Z,19.95
2017-08-08T01:01:36.510Z,19.92
2017-08-08T01:02:36.492Z,19.91
2017-08-08T01:03:36.490Z,19.88
2017-08-08T01:04:36.474Z,19.91
2017-08-08T01:05:36.480Z,19.91
2017-08-08T01:06:36.835Z,19.92
2017-08-08T01:07:36.457Z,19.91
2017-08-08T01:08:36.445Z,19.88
2017-08-08T01:09:36.450Z,19.88
2017-08-08T01:10:36.450Z,19.88
2017-08-08T01:11:36.434Z,19.91
2017-08-08T01:12:36.730Z,19.83
2017-08-08T01:13:36.422Z,19.83
2017-08-08T01:14:36.411Z,19.83
2017-08-08T01:15:36.398Z,19.83
2017-08-08T01:16:36.418Z,19.91
2017-08-08T01:17:36.383Z,19.80
2017-08-08T01:18:36.414Z,19.87
2017-08-08T01:19:36.377Z,19.86
2017-08-08T01:20:36.442Z,19.78
2017-08-08T01:21:36.364Z,19.88
2017-08-08T01:22:36.674Z,19.86
2017-08-08T01:23:36.352Z,19.81
2017-08-08T01:24:36.331Z,19.81
2017-08-08T01:25:36.326Z,19.81
2017-08-08T01:26:36.324Z,19.80
2017-08-08T01:27:36.309Z,19.88
2017-08-08T01:28:36.526Z,19.81
2017-08-08T01:29:36.299Z,19.81
2017-08-08T01:30:36.300Z,19.78
2017-08-08T01:31:36.296Z,19.78
2017-08-08T01:32:36.285Z,19.77
2017-08-08T01:33:36.267Z,19.78
2017-08-08T01:34:36.627Z,19.73
2017-08-08T01:35:36.255Z,19.84
2017-08-08T01:36:36.258Z,19.71
2017-08-08T01:37:36.252Z,19.71
2017-08-08T01:38:36.245Z,19.71
2017-08-08T01:39:36.242Z,19.71
2017-08-08T01:40:36.650Z,19.73
2017-08-08T01:41:36.214Z,19.65
2017-08-08T01:42:36.220Z,19.76
2017-08-08T01:43:36.219Z,19.78
2017-08-08T01:44:36.191Z,19.74
2017-08-08T01:45:36.194Z,19.69
2017-08-08T01:46:36.205Z,19.68
2017-08-08T01:47:36.170Z,19.71
2017-08-08T01:48:36.567Z,19.68
2017-08-08T01:49:36.166Z,19.69
2017-08-08T01:50:36.150Z,19.65
2017-08-08T01:51:36.144Z,19.63
2017-08-08T01:52:36.148Z,19.63
2017-08-08T01:53:36.126Z,19.68
2017-08-08T01:54:36.168Z,19.71
2017-08-08T01:55:36.128Z,19.63
2017-08-08T01:56:36.119Z,19.63
2017-08-08T01:57:36.107Z,19.66
2017-08-08T01:58:36.134Z,19.65
2017-08-08T01:59:36.095Z,19.63
2017-08-08T02:00:36.092Z,19.61
2017-08-08T02:01:36.071Z,19.61
2017-08-08T02:02:36.070Z,19.58
2017-08-08T02:03:36.433Z,19.59
2017-08-08T02:04:36.049Z,19.62
2017-08-08T02:05:36.043Z,19.61
2017-08-08T02:06:36.046Z,19.66
2017-08-08T02:07:36.042Z,19.66
2017-08-08T02:08:36.034Z,19.55
2017-08-08T02:09:36.056Z,19.58
2017-08-08T02:10:36.010Z,19.58
2017-08-08T02:11:36.018Z,19.58
2017-08-08T02:12:35.994Z,19.61
2017-08-08T02:13:36.365Z,19.56
2017-08-08T02:14:35.979Z,19.58
2017-08-08T02:15:35.975Z,19.56
2017-08-08T02:16:35.981Z,19.55
2017-08-08T02:17:35.971Z,19.59
2017-08-08T02:18:35.964Z,19.56
2017-08-08T02:19:36.293Z,19.58
2017-08-08T02:20:35.941Z,19.48
2017-08-08T02:21:35.929Z,19.48
2017-08-08T02:22:35.925Z,19.56
2017-08-08T02:23:35.937Z,19.51
2017-08-08T02:24:35.920Z,19.46
2017-08-08T02:25:36.289Z,19.58
2017-08-08T02:26:35.896Z,19.58
2017-08-08T02:27:35.890Z,19.41
2017-08-08T02:28:35.879Z,19.44
2017-08-08T02:29:35.873Z,19.47
2017-08-08T02:30:35.870Z,19.54
2017-08-08T02:31:35.903Z,19.43
2017-08-08T02:32:35.854Z,19.47
2017-08-08T02:33:35.853Z,19.47
2017-08-08T02:34:36.050Z,19.44
2017-08-08T02:35:35.848Z,19.44
2017-08-08T02:36:35.831Z,19.58
2017-08-08T02:37:35.827Z,19.44
2017-08-08T02:38:35.810Z,19.48
2017-08-08T02:39:35.813Z,19.44
2017-08-08T02:40:36.160Z,19.46
2017-08-08T02:41:35.799Z,19.46
2017-08-08T02:42:35.795Z,19.44
2017-08-08T02:43:35.794Z,19.50
2017-08-08T02:44:35.764Z,19.56
2017-08-08T02:45:35.761Z,19.41
2017-08-08T02:46:36.089Z,19.47
2017-08-08T02:47:35.752Z,19.43
2017-08-08T02:48:35.734Z,19.50
2017-08-08T02:49:35.730Z,19.43
2017-08-08T02:50:35.735Z,19.43
2017-08-08T02:51:35.715Z,19.43
2017-08-08T02:52:35.742Z,19.40
2017-08-08T02:53:35.700Z,19.44
2017-08-08T02:54:35.700Z,19.46
2017-08-08T02:55:35.686Z,19.37
2017-08-08T02:56:35.692Z,19.37
2017-08-08T02:57:36.001Z,19.46
2017-08-08T02:58:35.693Z,19.43
2017-08-08T02:59:35.668Z,19.46
2017-08-08T03:00:35.663Z,19.50
2017-08-08T03:01:35.661Z,19.33
2017-08-08T03:02:35.647Z,19.40
2017-08-08T03:03:35.993Z,19.37
2017-08-08T03:04:35.634Z,19.39
2017-08-08T03:05:35.616Z,19.39
2017-08-08T03:06:35.624Z,19.46
2017-08-08T03:07:35.610Z,19.36
2017-08-08T03:08:35.600Z,19.47
2017-08-08T03:09:36.049Z,19.44
2017-08-08T03:10:35.592Z,19.39
2017-08-08T03:11:35.586Z,19.46
2017-08-08T03:12:35.575Z,19.36
2017-08-08T03:13:35.578Z,19.32
2017-08-08T03:14:35.554Z,19.36
2017-08-08T03:15:35.906Z,19.40
2017-08-08T03:16:35.549Z,19.39
2017-08-08T03:17:35.541Z,19.37
2017-08-08T03:18:35.536Z,19.39
2017-08-08T03:19:35.526Z,19.36
2017-08-08T03:20:35.505Z,19.41
2017-08-08T03:21:35.885Z,19.33
2017-08-08T03:22:35.511Z,19.32
2017-08-08T03:23:35.497Z,19.36
2017-08-08T03:24:35.489Z,19.36
2017-08-08T03:25:35.486Z,19.37
2017-08-08T03:26:35.467Z,19.29
2017-08-08T03:27:35.819Z,19.40
2017-08-08T03:28:35.449Z,19.31
2017-08-08T03:29:35.459Z,19.26
2017-08-08T03:30:35.440Z,19.43
2017-08-08T03:31:35.439Z,19.29
2017-08-08T03:32:35.434Z,19.29
2017-08-08T03:33:35.656Z,19.28
2017-08-08T03:34:35.420Z,19.25
2017-08-08T03:35:35.411Z,19.29
2017-08-08T03:36:35.405Z,19.26
2017-08-08T03:37:35.398Z,19.32
2017-08-08T03:38:35.378Z,19.22
2017-08-08T03:39:35.680Z,19.19
2017-08-08T03:40:35.371Z,19.22
2017-08-08T03:41:35.365Z,19.21
2017-08-08T03:42:35.361Z,19.22
2017-08-08T03:43:35.347Z,19.16
2017-08-08T03:44:35.345Z,19.16
2017-08-08T03:45:35.673Z,19.13
2017-08-08T03:46:35.321Z,19.21
2017-08-08T03:47:35.308Z,19.21
2017-08-08T03:48:35.319Z,19.19
2017-08-08T03:49:35.298Z,19.26
2017-08-08T03:50:35.317Z,19.28
2017-08-08T03:51:35.695Z,19.18
2017-08-08T03:52:35.284Z,19.25
2017-08-08T03:53:35.269Z,19.14
2017-08-08T03:54:35.262Z,19.11
2017-08-08T03:55:35.266Z,19.14
2017-08-08T03:56:35.242Z,19.08
2017-08-08T03:57:35.273Z,19.11
2017-08-08T03:58:35.241Z,19.04
2017-08-08T03:59:35.225Z,19.06
2017-08-08T04:00:35.568Z,18.98
2017-08-08T04:01:35.220Z,19.08
2017-08-08T04:02:35.209Z,19.00
2017-08-08T04:03:35.189Z,18.95
2017-08-08T04:04:35.196Z,19.13
2017-08-08T04:05:35.190Z,19.14
2017-08-08T04:06:35.623Z,19.04
2017-08-08T04:07:35.172Z,18.98
2017-08-08T04:08:35.158Z,19.04
2017-08-08T04:09:35.145Z,19.02
2017-08-08T04:10:35.151Z,19.06
2017-08-08T04:11:35.136Z,18.92
2017-08-08T04:12:35.374Z,19.00
2017-08-08T04:13:35.123Z,18.94
2017-08-08T04:14:35.120Z,18.95
2017-08-08T04:15:35.105Z,19.07
2017-08-08T04:16:35.098Z,18.91
2017-08-08T04:17:35.101Z,18.94
2017-08-08T04:18:35.292Z,18.81
2017-08-08T04:19:35.072Z,18.78
2017-08-08T04:20:35.076Z,18.78
2017-08-08T04:21:35.060Z,18.78
2017-08-08T04:22:35.061Z,18.87
2017-08-08T04:23:35.042Z,18.80
2017-08-08T04:24:35.059Z,18.78
2017-08-08T04:25:35.047Z,18.76
2017-08-08T04:26:35.037Z,18.91
2017-08-08T04:27:35.035Z,18.82
2017-08-08T04:28:35.006Z,18.87
2017-08-08T04:29:35.344Z,18.87
2017-08-08T04:30:34.994Z,18.87
2017-08-08T04:31:34.986Z,18.84
2017-08-08T04:32:34.987Z,18.80
2017-08-08T04:33:34.970Z,18.81
2017-08-08T04:34:34.971Z,18.73
2017-08-08T04:35:35.282Z,18.82
2017-08-08T04:36:34.941Z,18.85
2017-08-08T04:37:34.938Z,18.81
2017-08-08T04:38:34.929Z,18.82
2017-08-08T04:39:34.934Z,18.81
2017-08-08T04:40:34.924Z,18.81
2017-08-08T04:41:35.291Z,18.81
2017-08-08T04:42:34.910Z,18.82
2017-08-08T04:43:34.903Z,18.82
2017-08-08T04:44:34.917Z,18.84
2017-08-08T04:45:34.889Z,18.84
2017-08-08T04:46:34.887Z,18.78
2017-08-08T04:47:35.088Z,18.80
2017-08-08T04:48:34.863Z,18.76
2017-08-08T04:49:34.844Z,18.73
2017-08-08T04:50:34.839Z,18.76
2017-08-08T04:51:34.845Z,18.70
2017-08-08T04:52:34.836Z,18.72
2017-08-08T04:53:35.287Z,18.67
2017-08-08T04:54:34.826Z,18.63
2017-08-08T04:55:34.817Z,18.72
2017-08-08T04:56:34.804Z,18.63
2017-08-08T04:57:34.807Z,18.67
2017-08-08T04:58:34.790Z,18.70
2017-08-08T04:59:34.975Z,18.70
2017-08-08T05:00:34.760Z,18.65
2017-08-08T05:01:34.758Z,18.67
2017-08-08T05:02:34.761Z,18.70
2017-08-08T05:03:34.739Z,18.88
2017-08-08T05:04:34.744Z,18.82
2017-08-08T05:05:35.141Z,18.82
2017-08-08T05:06:34.739Z,18.84
2017-08-08T05:07:34.708Z,18.85
2017-08-08T05:08:34.714Z,18.95
2017-08-08T05:09:34.710Z,18.94
2017-08-08T05:10:34.700Z,18.91
2017-08-08T05:11:35.091Z,18.98
2017-08-08T05:12:34.678Z,18.98
2017-08-08T05:13:34.679Z,18.99
2017-08-08T05:14:34.660Z,19.08
2017-08-08T05:15:34.649Z,18.99
2017-08-08T05:16:34.659Z,18.99
2017-08-08T05:17:34.927Z,18.92
2017-08-08T05:18:34.627Z,19.10
2017-08-08T05:19:34.643Z,19.07
2017-08-08T05:20:34.626Z,19.07
2017-08-08T05:21:34.607Z,19.06
2017-08-08T05:22:34.610Z,19.11
2017-08-08T05:23:34.623Z,19.02
2017-08-08T05:24:34.584Z,19.13
2017-08-08T05:25:34.575Z,19.07
2017-08-08T05:26:34.569Z,19.07
2017-08-08T05:27:34.916Z,19.11
2017-08-08T05:28:34.564Z,19.10
2017-08-08T05:29:34.552Z,19.18
2017-08-08T05:30:34.567Z,19.18
2017-08-08T05:31:34.543Z,19.14
2017-08-08T05:32:34.544Z,19.18
2017-08-08T05:33:34.957Z,19.14
2017-08-08T05:34:34.521Z,19.14
2017-08-08T05:35:34.513Z,19.13
2017-08-08T05:36:34.499Z,19.13
2017-08-08T05:37:34.487Z,19.14
2017-08-08T05:38:34.501Z,19.13
2017-08-08T05:39:34.833Z,19.21
2017-08-08T05:40:34.466Z,19.14
2017-08-08T05:41:34.469Z,19.16
2017-08-08T05:42:34.467Z,19.19
2017-08-08T05:43:34.463Z,19.16
2017-08-08T05:44:34.437Z,19.22
2017-08-08T05:45:34.467Z,19.13
2017-08-08T05:46:34.420Z,19.21
2017-08-08T05:47:34.418Z,19.25
2017-08-08T05:48:34.739Z,19.25
2017-08-08T05:49:34.412Z,19.28
2017-08-08T05:50:34.397Z,19.29
2017-08-08T05:51:34.408Z,19.25
2017-08-08T05:52:34.395Z,19.26
2017-08-08T05:53:34.383Z,19.21
2017-08-08T05:54:34.413Z,19.25
2017-08-08T05:55:34.370Z,19.25
2017-08-08T05:56:34.350Z,19.29
2017-08-08T05:57:34.352Z,19.22
2017-08-08T05:58:34.734Z,19.39
2017-08-08T05:59:34.343Z,19.41
2017-08-08T06:00:34.324Z,19.29
2017-08-08T06:01:34.314Z,19.29
2017-08-08T06:02:34.310Z,19.32
2017-08-08T06:03:34.309Z,19.26
2017-08-08T06:04:34.335Z,19.29
2017-08-08T06:05:34.287Z,19.33
2017-08-08T06:06:34.286Z,19.31
2017-08-08T06:07:34.281Z,19.29
2017-08-08T06:08:34.564Z,19.31
2017-08-08T06:09:34.267Z,19.33
2017-08-08T06:10:34.268Z,19.36
2017-08-08T06:11:34.241Z,19.28
2017-08-08T06:12:34.235Z,19.26
2017-08-08T06:13:34.225Z,19.36
2017-08-08T06:14:34.250Z,19.31
2017-08-08T06:15:34.238Z,19.22
2017-08-08T06:16:34.205Z,19.31
2017-08-08T06:17:34.203Z,19.26
2017-08-08T06:18:34.191Z,19.25
2017-08-08T06:19:34.490Z,19.21
2017-08-08T06:20:34.184Z,19.11
2017-08-08T06:21:34.185Z,19.21
2017-08-08T06:22:34.175Z,19.13
2017-08-08T06:23:34.154Z,19.23
2017-08-08T06:24:34.160Z,19.22
2017-08-08T06:25:34.172Z,19.10
2017-08-08T06:26:34.131Z,19.18
2017-08-08T06:27:34.123Z,19.28
2017-08-08T06:28:34.131Z,19.18
2017-08-08T06:29:34.123Z,19.22
2017-08-08T06:30:34.154Z,19.31
2017-08-08T06:31:34.104Z,19.23
2017-08-08T06:32:34.107Z,19.25
2017-08-08T06:33:34.104Z,19.36
2017-08-08T06:34:34.101Z,19.26
2017-08-08T06:35:34.408Z,19.29
2017-08-08T06:36:34.071Z,19.36
2017-08-08T06:37:34.068Z,19.47
2017-08-08T06:38:34.048Z,19.33
2017-08-08T06:39:34.052Z,19.33
2017-08-08T06:40:34.041Z,19.33
2017-08-08T06:41:34.451Z,19.44
2017-08-08T06:42:34.029Z,19.36
2017-08-08T06:43:34.011Z,19.44
2017-08-08T06:44:34.001Z,19.46
2017-08-08T06:45:33.998Z,19.50
2017-08-08T06:46:34.003Z,19.55
2017-08-08T06:47:34.031Z,19.50
2017-08-08T06:48:33.977Z,19.61
2017-08-08T06:49:33.980Z,19.63
2017-08-08T06:50:34.405Z,19.58
2017-08-08T06:51:33.970Z,19.65
2017-08-08T06:52:33.957Z,19.62
2017-08-08T06:53:33.951Z,19.69
2017-08-08T06:54:33.956Z,19.71
2017-08-08T06:55:33.939Z,19.68
2017-08-08T06:56:33.961Z,19.58
2017-08-08T06:57:33.923Z,19.73
2017-08-08T06:58:33.924Z,19.71
2017-08-08T06:59:33.908Z,19.71
2017-08-08T07:00:34.257Z,19.63
2017-08-08T07:01:33.903Z,19.68
2017-08-08T07:02:33.877Z,19.76
2017-08-08T07:03:33.870Z,19.65
2017-08-08T07:04:33.862Z,19.66
2017-08-08T07:05:33.876Z,19.71
2017-08-08T07:06:33.890Z,19.68
2017-08-08T07:07:33.840Z,19.65
2017-08-08T07:08:33.855Z,19.69
2017-08-08T07:09:33.827Z,19.73
2017-08-08T07:10:34.239Z,19.68
2017-08-08T07:11:33.821Z,19.76
2017-08-08T07:12:33.820Z,19.73
2017-08-08T07:13:33.817Z,19.65
2017-08-08T07:14:33.809Z,19.66
2017-08-08T07:15:33.797Z,19.66
2017-08-08T07:16:34.157Z,19.61
2017-08-08T07:17:33.782Z,19.59
2017-08-08T07:18:33.767Z,19.65
2017-08-08T07:19:33.757Z,19.59
2017-08-08T07:20:33.753Z,19.56
2017-08-08T07:21:33.762Z,19.62
2017-08-08T07:22:34.043Z,19.55
2017-08-08T07:23:33.729Z,19.61
2017-08-08T07:24:33.732Z,19.68
2017-08-08T07:25:33.727Z,19.61
2017-08-08T07:26:33.721Z,19.69
2017-08-08T07:27:33.705Z,19.73
2017-08-08T07:28:33.927Z,19.65
2017-08-08T07:29:33.700Z,19.68
2017-08-08T07:30:33.685Z,19.68
2017-08-08T07:31:33.676Z,19.76
2017-08-08T07:32:33.670Z,19.78
2017-08-08T07:33:33.673Z,19.77
2017-08-08T07:34:33.981Z,19.80
2017-08-08T07:35:33.661Z,19.80
2017-08-08T07:36:33.641Z,19.69
2017-08-08T07:37:33.637Z,19.78
2017-08-08T07:38:33.642Z,19.73
2017-08-08T07:39:33.634Z,19.76
2017-08-08T07:40:33.986Z,19.81
2017-08-08T07:41:33.615Z,19.74
2017-08-08T07:42:33.613Z,19.84
2017-08-08T07:43:33.602Z,19.78
2017-08-08T07:44:33.586Z,19.84
2017-08-08T07:45:33.594Z,19.81
2017-08-08T07:46:33.977Z,19.80
2017-08-08T07:47:33.575Z,19.86
2017-08-08T07:48:33.573Z,19.87
2017-08-08T07:49:33.547Z,19.92
2017-08-08T07:50:33.548Z,19.94
2017-08-08T07:51:33.553Z,19.98
2017-08-08T07:52:33.781Z,19.96
2017-08-08T07:53:33.537Z,20.02
2017-08-08T07:54:33.516Z,20.08
2017-08-08T07:55:33.513Z,20.05
2017-08-08T07:56:33.517Z,20.08
2017-08-08T07:57:33.495Z,20.06
2017-08-08T07:58:33.796Z,20.11
2017-08-08T07:59:33.499Z,20.13
2017-08-08T08:00:33.488Z,20.11
2017-08-08T08:01:33.473Z,20.11
2017-08-08T08:02:33.482Z,20.14
2017-08-08T08:03:33.461Z,20.08
2017-08-08T08:04:33.794Z,20.11
2017-08-08T08:05:33.459Z,20.18
2017-08-08T08:06:33.451Z,20.14
2017-08-08T08:07:33.451Z,20.21
2017-08-08T08:08:33.429Z,20.21
2017-08-08T08:09:33.433Z,20.28
2017-08-08T08:10:33.782Z,20.18
2017-08-08T08:11:33.418Z,20.24
2017-08-08T08:12:33.419Z,20.24
2017-08-08T08:13:33.399Z,20.26
2017-08-08T08:14:33.402Z,20.28
2017-08-08T08:15:33.401Z,20.18
2017-08-08T08:16:33.419Z,20.20
2017-08-08T08:17:33.383Z,20.28
2017-08-08T08:18:33.360Z,20.29
2017-08-08T08:19:33.356Z,20.18
2017-08-08T08:20:33.353Z,20.35
2017-08-08T08:21:33.382Z,20.33
2017-08-08T08:22:33.341Z,20.26
2017-08-08T08:23:33.328Z,20.35
2017-08-08T08:24:33.333Z,20.33
2017-08-08T08:25:33.318Z,20.23
2017-08-08T08:26:33.344Z,20.32
2017-08-08T08:27:33.313Z,20.26
2017-08-08T08:28:33.302Z,20.35
2017-08-08T08:29:33.302Z,20.28
2017-08-08T08:30:33.283Z,20.24
2017-08-08T08:31:33.606Z,20.43
2017-08-08T08:32:33.280Z,20.38
2017-08-08T08:33:33.277Z,20.38
2017-08-08T08:34:33.268Z,20.41
2017-08-08T08:35:33.251Z,20.35
2017-08-08T08:36:33.242Z,20.41
2017-08-08T08:37:33.690Z,20.48
2017-08-08T08:38:33.243Z,20.41
2017-08-08T08:39:33.222Z,20.42
2017-08-08T08:40:33.234Z,20.52
2017-08-08T08:41:33.230Z,20.42
2017-08-08T08:42:33.214Z,20.47
2017-08-08T08:43:33.435Z,20.41
2017-08-08T08:44:33.202Z,20.48
2017-08-08T08:45:33.184Z,20.50
2017-08-08T08:46:33.190Z,20.57
2017-08-08T08:47:33.184Z,20.58
2017-08-08T08:48:33.187Z,20.57
2017-08-08T08:49:33.389Z,20.59
2017-08-08T08:50:33.166Z,20.62
2017-08-08T08:51:33.147Z,20.58
2017-08-08T08:52:33.141Z,20.69
2017-08-08T08:53:33.144Z,20.70
2017-08-08T08:54:33.130Z,20.66
2017-08-08T08:55:33.469Z,20.72
2017-08-08T08:56:33.117Z,20.69
2017-08-08T08:57:33.125Z,20.66
2017-08-08T08:58:33.113Z,20.77
2017-08-08T08:59:33.097Z,20.74
2017-08-08T09:00:33.090Z,20.73
2017-08-08T09:01:33.114Z,20.84
2017-08-08T09:02:33.091Z,20.72
2017-08-08T09:03:33.071Z,20.87
2017-08-08T09:04:33.070Z,20.79
2017-08-08T09:05:33.080Z,20.80
2017-08-08T09:06:33.062Z,20.84
2017-08-08T09:07:33.402Z,20.87
2017-08-08T09:08:33.059Z,20.95
2017-08-08T09:09:33.050Z,20.94
2017-08-08T09:10:33.044Z,20.97
2017-08-08T09:11:33.031Z,20.89
2017-08-08T09:12:33.040Z,20.95
2017-08-08T09:13:33.408Z,20.99
2017-08-08T09:14:33.016Z,21.04
2017-08-08T09:15:32.997Z,21.10
2017-08-08T09:16:33.071Z,21.03
2017-08-08T09:17:33.732Z,21.10
2017-08-08T09:18:34.182Z,21.14
2017-08-08T09:19:33.892Z,21.17
2017-08-08T09:20:32.973Z,21.17
2017-08-08T09:21:32.962Z,21.16
2017-08-08T09:22:32.991Z,21.19
2017-08-08T09:23:34.006Z,21.14
2017-08-08T09:24:32.944Z,21.17
2017-08-08T09:25:33.420Z,21.25
2017-08-08T09:26:32.931Z,21.27
2017-08-08T09:27:34.016Z,21.31
2017-08-08T09:28:33.744Z,21.27
2017-08-08T09:29:33.730Z,21.25
2017-08-08T09:30:32.925Z,21.17
2017-08-08T09:31:35.385Z,21.29
2017-08-08T09:32:33.437Z,21.38
2017-08-08T09:33:32.898Z,21.24
2017-08-08T09:34:32.896Z,21.44
2017-08-08T09:35:32.891Z,21.35
2017-08-08T09:36:32.883Z,21.38
2017-08-08T09:37:33.105Z,21.46
2017-08-08T09:38:32.953Z,21.42
2017-08-08T09:39:33.628Z,21.42
2017-08-08T09:40:32.848Z,21.35
2017-08-08T09:41:32.849Z,21.42
2017-08-08T09:42:32.837Z,21.47
2017-08-08T09:43:34.193Z,21.50
2017-08-08T09:44:32.958Z,21.52
2017-08-08T09:45:33.328Z,21.47
2017-08-08T09:46:32.864Z,21.52
2017-08-08T09:47:32.808Z,21.52
2017-08-08T09:48:33.206Z,21.49
2017-08-08T09:49:34.413Z,21.52
2017-08-08T09:50:33.562Z,21.50
2017-08-08T09:51:34.173Z,21.56
2017-08-08T09:52:32.777Z,21.58
2017-08-08T09:53:32.788Z,21.62
2017-08-08T09:54:32.782Z,21.62
2017-08-08T09:55:33.222Z,21.65
2017-08-08T09:56:32.771Z,21.65
2017-08-08T09:57:32.767Z,21.67
2017-08-08T09:58:34.408Z,21.52
2017-08-08T09:59:33.188Z,21.59
2017-08-08T10:00:32.750Z,21.64
2017-08-08T10:01:32.832Z,21.64
2017-08-08T10:02:34.566Z,21.62
2017-08-08T10:03:33.409Z,21.68
2017-08-08T10:04:33.191Z,21.72
2017-08-08T10:05:33.094Z,21.79
2017-08-08T10:06:33.278Z,21.71
2017-08-08T10:07:33.455Z,21.61
2017-08-08T10:08:34.265Z,21.67
2017-08-08T10:09:32.685Z,21.77
2017-08-08T10:10:32.680Z,21.71
2017-08-08T10:11:32.673Z,21.77
2017-08-08T10:12:32.674Z,21.72
2017-08-08T10:13:32.759Z,21.79
2017-08-08T10:14:33.033Z,21.84
2017-08-08T10:15:32.651Z,21.83
2017-08-08T10:16:32.651Z,21.80
2017-08-08T10:17:34.422Z,21.83
2017-08-08T10:18:33.556Z,21.83
2017-08-08T10:19:32.765Z,21.88
2017-08-08T10:20:32.969Z,21.80
2017-08-08T10:21:33.217Z,21.92
2017-08-08T10:22:33.225Z,21.90
2017-08-08T10:23:33.095Z,21.90
2017-08-08T10:24:33.393Z,21.92
2017-08-08T10:25:35.009Z,21.92
2017-08-08T10:26:33.799Z,21.99
2017-08-08T10:27:33.906Z,21.91
2017-08-08T10:28:32.830Z,22.02
2017-08-08T10:29:32.687Z,21.98
2017-08-08T10:30:33.065Z,21.92
2017-08-08T10:31:32.900Z,22.06
2017-08-08T10:32:33.813Z,21.99
2017-08-08T10:33:33.580Z,22.09
2017-08-08T10:34:32.562Z,22.09
2017-08-08T10:35:32.558Z,22.14
2017-08-08T10:36:32.538Z,22.17
2017-08-08T10:37:33.166Z,22.09
2017-08-08T10:38:32.877Z,22.12
2017-08-08T10:39:33.023Z,22.12
2017-08-08T10:40:32.518Z,22.10
2017-08-08T10:41:33.290Z,22.15
2017-08-08T10:42:32.853Z,22.24
2017-08-08T10:43:32.517Z,22.27
2017-08-08T10:44:32.931Z,22.22
2017-08-08T10:45:34.153Z,22.27
2017-08-08T10:46:33.206Z,22.31
2017-08-08T10:47:47.970Z,22.30
2017-08-08T10:48:33.206Z,22.25
2017-08-08T10:49:33.241Z,22.30
2017-08-08T10:50:32.958Z,22.31
2017-08-08T10:51:32.934Z,22.30
2017-08-08T10:52:32.466Z,22.30
2017-08-08T10:53:32.457Z,22.36
2017-08-08T10:54:32.510Z,22.35
2017-08-08T10:55:32.661Z,22.39
2017-08-08T10:56:33.203Z,22.30
2017-08-08T10:57:33.407Z,22.33
2017-08-08T10:58:32.433Z,22.37
2017-08-08T10:59:32.416Z,22.33
2017-08-08T11:00:33.121Z,22.35
2017-08-08T11:01:33.588Z,22.35
2017-08-08T11:02:33.573Z,22.30
2017-08-08T11:03:32.425Z,22.35
2017-08-08T11:04:33.226Z,22.31
2017-08-08T11:05:33.165Z,22.30
2017-08-08T11:06:33.139Z,22.30
2017-08-08T11:07:32.389Z,22.28
2017-08-08T11:08:32.744Z,22.39
2017-08-08T11:09:33.194Z,22.21
2017-08-08T11:10:33.059Z,22.21
2017-08-08T11:11:33.107Z,22.28
2017-08-08T11:12:32.811Z,22.24
2017-08-08T11:13:33.034Z,22.25
2017-08-08T11:14:33.456Z,22.27
2017-08-08T11:15:32.558Z,22.22
2017-08-08T11:16:32.762Z,22.21
2017-08-08T11:17:32.655Z,22.18
2017-08-08T11:18:33.009Z,22.21
2017-08-08T11:19:32.711Z,22.22
2017-08-08T11:20:32.762Z,22.18
2017-08-08T11:21:32.314Z,22.18
2017-08-08T11:22:32.395Z,22.14
2017-08-08T11:23:32.889Z,22.14
2017-08-08T11:24:33.816Z,22.10
2017-08-08T11:25:33.000Z,22.09
2017-08-08T11:26:33.493Z,22.09
2017-08-08T11:27:32.304Z,22.12
2017-08-08T11:28:32.286Z,22.09
2017-08-08T11:29:33.849Z,22.14
2017-08-08T11:30:32.854Z,22.12
2017-08-08T11:31:32.677Z,22.17
2017-08-08T11:32:32.604Z,22.12
2017-08-08T11:33:33.043Z,22.17
2017-08-08T11:34:32.230Z,22.14
2017-08-08T11:35:32.932Z,22.14
2017-08-08T11:36:32.852Z,22.14
2017-08-08T11:37:32.256Z,22.14
2017-08-08T11:38:33.025Z,22.10
2017-08-08T11:39:32.991Z,22.10
2017-08-08T11:40:33.000Z,22.15
2017-08-08T11:41:32.318Z,22.12
2017-08-08T11:42:32.749Z,22.17
2017-08-08T11:43:32.292Z,22.20
2017-08-08T11:44:32.251Z,22.20
2017-08-08T11:45:32.309Z,22.20
2017-08-08T11:46:32.444Z,22.22
2017-08-08T11:47:32.309Z,22.22
2017-08-08T11:48:32.513Z,22.14
2017-08-08T11:49:32.981Z,22.28
2017-08-08T11:50:32.174Z,22.22
2017-08-08T11:51:32.159Z,22.22
2017-08-08T11:52:32.307Z,22.17
2017-08-08T11:53:32.373Z,22.24
2017-08-08T11:54:32.802Z,22.20
2017-08-08T11:55:32.830Z,22.28
2017-08-08T11:56:32.166Z,22.18
2017-08-08T11:57:32.943Z,22.25
2017-08-08T11:58:32.123Z,22.30
2017-08-08T11:59:32.109Z,22.25
2017-08-08T12:00:33.723Z,22.18
2017-08-08T12:01:32.108Z,22.33
2017-08-08T12:02:32.101Z,22.28
2017-08-08T12:03:32.540Z,22.28
2017-08-08T12:04:32.867Z,22.28
2017-08-08T12:05:32.802Z,22.33
2017-08-08T12:06:33.360Z,22.28
2017-08-08T12:07:32.121Z,22.25
2017-08-08T12:08:32.084Z,22.30
2017-08-08T12:09:32.192Z,22.31
2017-08-08T12:10:32.526Z,22.21
2017-08-08T12:11:32.316Z,22.25
2017-08-08T12:12:32.574Z,22.36
2017-08-08T12:13:32.725Z,22.27
2017-08-08T12:14:32.353Z,22.30
2017-08-08T12:15:32.292Z,22.25
2017-08-08T12:16:32.719Z,22.27
2017-08-08T12:17:32.018Z,22.31
2017-08-08T12:18:32.218Z,22.25
2017-08-08T12:19:31.992Z,22.42
2017-08-08T12:20:31.987Z,22.27
2017-08-08T12:21:31.983Z,22.28
2017-08-08T12:22:31.986Z,22.22
2017-08-08T12:23:31.974Z,22.31
2017-08-08T12:24:32.468Z,22.22
2017-08-08T12:25:32.286Z,22.25
2017-08-08T12:26:31.960Z,22.25
2017-08-08T12:27:31.961Z,22.24
2017-08-08T12:28:31.963Z,22.20
2017-08-08T12:29:31.949Z,22.21
2017-08-08T12:30:32.284Z,22.17
2017-08-08T12:31:31.951Z,22.20
2017-08-08T12:32:31.938Z,22.15
2017-08-08T12:33:31.933Z,22.14
2017-08-08T12:34:31.951Z,22.12
2017-08-08T12:35:31.920Z,22.06
2017-08-08T12:36:32.137Z,22.14
2017-08-08T12:37:31.912Z,22.14
2017-08-08T12:38:31.928Z,22.15
2017-08-08T12:39:33.332Z,22.18
2017-08-08T12:40:31.890Z,22.15
2017-08-08T12:41:31.889Z,22.07
2017-08-08T12:42:32.257Z,22.10
2017-08-08T12:43:32.494Z,22.03
2017-08-08T12:44:31.887Z,21.98
2017-08-08T12:45:31.905Z,21.96
2017-08-08T12:46:31.853Z,22.06
2017-08-08T12:47:31.858Z,22.05
2017-08-08T12:48:32.173Z,21.92
2017-08-08T12:49:31.844Z,21.94
2017-08-08T12:50:31.832Z,21.91
2017-08-08T12:51:31.826Z,21.98
2017-08-08T12:52:31.827Z,21.92